Time;durP1;ratioP1;P1;durP2;ratioP2;P2;SDS_P1;SDS_P2;PMS_P1;PMS_P2;Temp;Humidity;BMP_temperature;BMP_pressure;BME280_temperature;BME280_humidity;BME280_pressure;Samples;Min_cycle;Max_cycle;Signal;HPM_P1;HPM_P2
2023/03/16 00:01:21;;;;;;;2.50;1.35;;;;;;;9.47;38.65;94446.53;4984321;28;20040;-88
2023/03/16 00:03:46;;;;;;;3.72;1.42;;;;;;;9.33;38.58;94443.63;4996247;28;20022;-87
2023/03/16 00:06:12;;;;;;;8.02;2.20;;;;;;;8.75;39.94;94440.00;4996139;28;20117;-87
2023/03/16 00:08:38;;;;;;;7.05;3.20;;;;;;;8.79;41.03;94448.09;4997212;28;20344;-88
2023/03/16 00:11:04;;;;;;;5.53;2.97;;;;;;;9.04;39.92;94446.66;4996141;28;20087;-87
2023/03/16 00:13:29;;;;;;;4.90;2.70;;;;;;;9.16;40.37;94451.66;4997208;28;20480;-87
2023/03/16 00:16:03;;;;;;;5.22;2.25;;;;;;;9.26;38.08;94451.72;4997210;28;20076;-87
2023/03/16 00:18:29;;;;;;;;;;;;;;;9.50;36.87;94458.31;4996186;28;20066;-88
2023/03/16 00:21:01;;;;;;;6.78;2.88;;;;;;;9.36;37.61;94464.03;4996047;28;20355;-87
2023/03/16 00:23:27;;;;;;;5.35;2.47;;;;;;;9.23;37.90;94459.28;4996615;28;20026;-87
2023/03/16 00:25:57;;;;;;;5.75;2.60;;;;;;;9.29;38.35;94458.25;4996310;28;20065;-87
2023/03/16 00:28:23;;;;;;;6.75;2.63;;;;;;;9.28;38.49;94461.91;4996375;28;20030;-87
2023/03/16 00:30:48;;;;;;;5.32;2.28;;;;;;;9.34;37.50;94466.91;4999932;28;20037;-88
2023/03/16 00:33:14;;;;;;;5.75;2.65;;;;;;;9.46;37.76;94464.03;4999802;28;20036;-88
2023/03/16 00:35:49;;;;;;;7.72;2.58;;;;;;;9.15;39.07;94474.41;4999581;28;20077;-87
2023/03/16 00:38:18;;;;;;;8.00;2.63;;;;;;;9.32;39.12;94468.19;4999762;28;20041;-88
2023/03/16 00:40:44;;;;;;;5.13;2.25;;;;;;;9.04;38.84;94467.56;4999337;28;20030;-87
2023/03/16 00:43:10;;;;;;;4.80;1.80;;;;;;;9.19;37.68;94469.44;4999506;28;20042;-87
2023/03/16 00:45:35;;;;;;;2.35;1.33;;;;;;;9.19;38.41;94475.47;4999594;28;20403;-87
2023/03/16 00:48:01;;;;;;;5.57;1.70;;;;;;;9.22;38.18;94470.78;4999404;28;20026;-87
2023/03/16 00:50:27;;;;;;;3.53;1.80;;;;;;;9.32;39.78;94468.19;4999495;28;20035;-87
2023/03/16 00:52:52;;;;;;;4.10;1.98;;;;;;;9.07;39.24;94469.66;4999399;28;20034;-88
2023/03/16 00:55:18;;;;;;;2.15;1.30;;;;;;;9.19;38.71;94469.44;4999161;28;20042;-87
2023/03/16 00:57:44;;;;;;;2.55;1.40;;;;;;;9.09;39.07;94472.00;4999232;28;20030;-87
2023/03/16 01:00:15;;;;;;;3.15;1.65;;;;;;;9.04;39.53;94465.72;4999114;28;20038;-87
2023/03/16 01:02:44;;;;;;;2.35;1.45;;;;;;;9.03;39.25;94476.44;4999239;28;20026;-87
2023/03/16 01:05:11;;;;;;;3.17;1.48;;;;;;;9.13;39.90;94478.31;4999573;28;20053;-87
2023/03/16 01:07:37;;;;;;;4.28;1.98;;;;;;;9.23;38.39;94467.13;4999137;28;20037;-87
2023/03/16 01:10:05;;;;;;;3.70;1.77;;;;;;;9.11;39.32;94472.53;4999087;28;20058;-87
2023/03/16 01:12:31;;;;;;;6.25;2.10;;;;;;;8.71;40.02;94472.09;4998953;28;20038;-88
2023/03/16 01:14:57;;;;;;;4.32;2.03;;;;;;;8.42;40.55;94467.16;4999055;28;20041;-87
2023/03/16 01:17:22;;;;;;;5.03;2.08;;;;;;;8.39;40.47;94462.47;4999109;28;20034;-87
2023/03/16 01:19:48;;;;;;;5.78;1.73;;;;;;;8.28;40.37;94464.22;4999039;28;20034;-87
2023/03/16 01:22:16;;;;;;;4.15;1.90;;;;;;;8.83;39.04;94469.28;4999144;28;20030;-87
2023/03/16 01:24:44;;;;;;;5.10;2.22;;;;;;;8.89;38.73;94471.69;4998711;28;20343;-88
2023/03/16 01:27:09;;;;;;;4.40;2.08;;;;;;;8.89;38.72;94474.31;4998931;28;20030;-87
2023/03/16 01:29:36;;;;;;;4.20;1.90;;;;;;;8.86;39.42;94463.56;4998773;28;20348;-87
2023/03/16 01:32:03;;;;;;;5.50;2.53;;;;;;;8.87;39.07;94458.06;4998827;28;20034;-87
2023/03/16 01:34:28;;;;;;;5.93;2.50;;;;;;;8.88;38.65;94454.41;4998881;28;20038;-87
2023/03/16 01:37:12;;;;;;;3.30;1.77;;;;;;;9.01;39.78;94453.19;4998426;28;20031;-87
2023/03/16 01:39:38;;;;;;;4.03;2.15;;;;;;;8.53;39.93;94455.00;4999124;28;20117;-86
2023/03/16 01:42:06;;;;;;;4.68;2.40;;;;;;;8.65;40.26;94449.59;4999354;28;20117;-88
2023/03/16 01:44:53;;;;;;;4.55;2.30;;;;;;;9.03;38.78;94447.69;4998364;28;20022;-87
2023/03/16 01:47:19;;;;;;;5.75;2.50;;;;;;;8.91;39.75;94443.47;4998357;28;20412;-87
2023/03/16 01:49:47;;;;;;;8.70;2.67;;;;;;;8.74;39.94;94435.00;4998475;28;20066;-87
2023/03/16 01:52:17;;;;;;;4.22;2.35;;;;;;;8.94;40.33;94436.16;4998303;28;20057;-87
2023/03/16 01:55:02;;;;;;;5.82;2.53;;;;;;;8.30;42.00;94434.19;4998112;28;20038;-88
2023/03/16 01:57:31;;;;;;;5.22;2.72;;;;;;;8.35;40.73;94429.03;4998150;28;20026;-87
2023/03/16 02:00:19;;;;;;;4.88;2.15;;;;;;;8.30;41.44;94428.97;4997662;28;20034;-87
2023/03/16 02:02:47;;;;;;;6.70;2.25;;;;;;;8.31;41.40;94429.78;4997992;28;20030;-87
2023/03/16 02:05:17;;;;;;;8.05;2.40;;;;;;;8.60;41.13;94435.44;4998263;28;20053;-87
2023/03/16 02:07:46;;;;;;;4.35;2.35;;;;;;;8.72;39.93;94434.47;4998130;28;20042;-87
2023/03/16 02:10:14;;;;;;;7.10;3.05;;;;;;;8.83;40.17;94425.66;4997883;28;20124;-87
2023/03/16 02:12:39;;;;;;;5.40;2.53;;;;;;;8.55;40.18;94432.81;4997621;28;20034;-87
2023/03/16 02:15:05;;;;;;;7.32;2.45;;;;;;;8.49;38.82;94431.19;4997652;28;20038;-87
2023/03/16 02:17:34;;;;;;;4.55;2.17;;;;;;;8.80;39.40;94431.41;4997747;28;20045;-88
2023/03/16 02:20:07;;;;;;;5.45;2.40;;;;;;;8.13;40.46;94430.94;4997663;28;20354;-87
2023/03/16 02:22:35;;;;;;;4.72;1.98;;;;;;;8.39;39.18;94426.69;4998235;28;20041;-88
2023/03/16 02:25:01;;;;;;;3.65;2.03;;;;;;;8.56;38.86;94428.41;4981693;28;20447;-87
2023/03/16 02:27:39;;;;;;;8.82;1.95;;;;;;;8.72;38.97;94424.03;4997312;28;20042;-88
2023/03/16 02:30:11;;;;;;;5.80;2.10;;;;;;;8.96;38.60;94426.22;4997974;28;20031;-87
2023/03/16 02:32:37;;;;;;;4.63;2.05;;;;;;;8.72;39.40;94419.59;4997371;28;20069;-88
2023/03/16 02:35:05;;;;;;;4.15;1.70;;;;;;;8.63;38.78;94427.13;4997176;28;20356;-88
2023/03/16 02:37:40;;;;;;;3.78;1.58;;;;;;;8.81;40.33;94421.72;4997672;28;20041;-88
2023/03/16 02:40:28;;;;;;;3.30;1.60;;;;;;;8.76;38.53;94417.28;4997926;28;20041;-88
2023/03/16 02:43:01;;;;;;;4.15;1.90;;;;;;;8.75;38.95;94408.63;4997077;28;20034;-88
2023/03/16 02:45:32;;;;;;;7.50;1.90;;;;;;;8.69;39.35;94412.28;4997339;28;20037;-87
2023/03/16 02:48:02;;;;;;;3.20;1.55;;;;;;;8.66;38.83;94414.59;4997277;28;20040;-88
2023/03/16 02:50:27;;;;;;;2.80;1.70;;;;;;;8.66;38.77;94410.16;4980645;28;20034;-88
2023/03/16 02:52:53;;;;;;;2.75;1.50;;;;;;;8.49;38.87;94410.31;4996717;28;20030;-87
2023/03/16 02:55:18;;;;;;;3.53;1.67;;;;;;;8.22;38.99;94408.56;4997175;28;20045;-87
2023/03/16 02:57:44;;;;;;;4.95;1.35;;;;;;;8.37;38.13;94413.09;4997058;28;20433;-88
2023/03/16 03:00:15;;;;;;;3.28;1.65;;;;;;;8.32;38.77;94421.69;4998026;28;20473;-88
2023/03/16 03:02:41;;;;;;;3.28;1.42;;;;;;;8.25;39.10;94412.47;4997171;28;20108;-88
2023/03/16 03:05:06;;;;;;;3.85;1.73;;;;;;;8.32;38.34;94424.31;4996917;28;20105;-87
2023/03/16 03:07:33;;;;;;;2.90;1.67;;;;;;;8.43;38.59;94421.75;4998064;28;20033;-87
2023/03/16 03:09:58;;;;;;;4.60;1.35;;;;;;;8.38;38.74;94424.34;4996996;28;20391;-88
2023/03/16 03:12:24;;;;;;;3.28;1.40;;;;;;;8.30;39.29;94418.53;4996966;28;20030;-87
2023/03/16 03:14:49;;;;;;;3.22;1.60;;;;;;;8.26;38.48;94417.47;4997900;28;20085;-87
2023/03/16 03:17:15;;;;;;;4.57;2.03;;;;;;;8.18;38.63;94423.16;4996948;28;20428;-88
2023/03/16 03:19:40;;;;;;;3.42;1.55;;;;;;;8.25;38.83;94423.72;4996503;28;20034;-87
2023/03/16 03:22:06;;;;;;;2.45;1.25;;;;;;;8.41;38.58;94421.22;4996686;28;20072;-87
2023/03/16 03:24:32;;;;;;;2.40;1.40;;;;;;;8.51;38.89;94423.13;4996663;28;20081;-87
2023/03/16 03:27:04;;;;;;;3.78;1.40;;;;;;;8.49;39.11;94428.59;4996618;28;20368;-88
2023/03/16 03:29:33;;;;;;;4.40;1.67;;;;;;;8.55;38.78;94424.97;4997224;28;20034;-88
2023/03/16 03:32:02;;;;;;;3.13;1.50;;;;;;;8.59;39.33;94431.28;4996509;28;20343;-87
2023/03/16 03:34:28;;;;;;;1.85;1.27;;;;;;;8.77;39.63;94429.28;4996184;28;20030;-87
2023/03/16 03:36:54;;;;;;;3.58;1.73;;;;;;;8.54;40.29;94428.63;4996786;28;20105;-87
2023/03/16 03:39:19;;;;;;;2.72;1.38;;;;;;;8.54;40.79;94433.09;4996334;28;20070;-88
2023/03/16 03:41:44;;;;;;;2.88;1.50;;;;;;;8.39;41.19;94437.13;4996544;28;20039;-87
2023/03/16 03:44:10;;;;;;;2.63;1.20;;;;;;;8.58;41.25;94439.38;4996614;28;20030;-87
2023/03/16 03:46:35;;;;;;;2.55;1.40;;;;;;;8.53;41.97;94447.16;4996017;28;20037;-88
2023/03/16 03:49:04;;;;;;;2.97;1.05;;;;;;;8.39;42.66;94447.56;4996238;28;20321;-88
2023/03/16 03:51:30;;;;;;;3.45;1.23;;;;;;;8.41;42.12;94452.53;4996659;28;20050;-87
2023/03/16 03:53:56;;;;;;;3.08;1.75;;;;;;;8.39;41.99;94452.00;4996358;28;20157;-88
2023/03/16 03:56:21;;;;;;;3.67;1.20;;;;;;;8.43;42.11;94458.28;4996543;28;20030;-88
2023/03/16 03:58:47;;;;;;;3.63;1.35;;;;;;;8.37;42.09;94456.69;4995839;28;20077;-87
2023/03/16 04:01:12;;;;;;;2.28;1.13;;;;;;;8.32;42.25;94460.06;4996120;28;20026;-87
2023/03/16 04:03:38;;;;;;;1.83;1.02;;;;;;;8.43;42.07;94466.13;4998448;28;20030;-87
2023/03/16 04:06:05;;;;;;;4.15;1.25;;;;;;;8.38;42.62;94464.25;5000317;28;20144;-88
2023/03/16 04:08:31;;;;;;;4.88;1.33;;;;;;;8.39;42.00;94471.06;4999901;28;20128;-87
2023/03/16 04:10:57;;;;;;;2.92;1.23;;;;;;;8.33;42.16;94472.88;5000386;28;20125;-87
2023/03/16 04:13:22;;;;;;;3.03;1.10;;;;;;;8.54;41.49;94478.25;5000054;28;20030;-87
2023/03/16 04:15:48;;;;;;;5.95;1.10;;;;;;;8.73;41.13;94477.84;5000051;28;20030;-88
2023/03/16 04:18:13;;;;;;;3.53;1.30;;;;;;;8.89;40.77;94476.91;4999668;28;20137;-87
2023/03/16 04:20:39;;;;;;;1.55;0.98;;;;;;;8.93;40.69;94486.84;5001148;28;20109;-88
2023/03/16 04:23:04;;;;;;;1.70;0.90;;;;;;;9.02;40.16;94485.31;5000079;28;20034;-88
2023/03/16 04:25:29;;;;;;;1.95;1.00;;;;;;;9.03;40.61;94489.50;4999875;28;20519;-87
2023/03/16 04:27:55;;;;;;;2.03;0.90;;;;;;;9.03;40.88;94489.50;5000027;28;20120;-88
2023/03/16 04:30:24;;;;;;;2.92;0.90;;;;;;;8.97;41.17;94493.13;4999686;28;20037;-88
2023/03/16 04:32:51;;;;;;;2.25;0.80;;;;;;;8.91;41.86;94500.97;4999804;28;20031;-87
2023/03/16 04:35:16;;;;;;;2.13;0.90;;;;;;;8.84;42.06;94497.75;5000005;28;20420;-88
2023/03/16 04:37:42;;;;;;;2.40;1.08;;;;;;;8.91;41.05;94502.78;4999764;28;20030;-87
2023/03/16 04:40:14;;;;;;;1.58;0.82;;;;;;;9.03;40.26;94503.38;4999707;28;20053;-88
2023/03/16 04:42:40;;;;;;;5.28;1.08;;;;;;;9.02;39.98;94503.59;4999714;28;20352;-87
2023/03/16 04:45:07;;;;;;;2.13;1.15;;;;;;;8.95;40.14;94508.28;4999554;28;20031;-88
2023/03/16 04:47:33;;;;;;;2.25;1.15;;;;;;;9.08;39.77;94500.00;4999419;28;20089;-87
2023/03/16 04:50:01;;;;;;;2.22;1.23;;;;;;;8.86;40.43;94516.59;4999322;28;20035;-87
2023/03/16 04:52:27;;;;;;;2.15;0.98;;;;;;;8.79;40.09;94507.41;4999811;28;20471;-88
2023/03/16 04:54:52;;;;;;;3.45;0.80;;;;;;;8.67;40.05;94512.81;4999050;28;20080;-87
2023/03/16 04:57:18;;;;;;;3.35;1.40;;;;;;;8.61;40.77;94518.00;4999201;28;20465;-87
2023/03/16 04:59:44;;;;;;;2.92;1.10;;;;;;;8.56;41.77;94504.13;4999424;28;20132;-88
2023/03/16 05:02:09;;;;;;;1.80;0.90;;;;;;;8.50;42.52;94513.75;4999194;28;20223;-88
2023/03/16 05:04:35;;;;;;;1.73;1.08;;;;;;;8.19;42.82;94523.91;4999420;28;20026;-87
2023/03/16 05:07:00;;;;;;;3.10;1.13;;;;;;;8.30;42.18;94522.94;4983313;28;20065;-87
2023/03/16 05:09:26;;;;;;;2.40;0.98;;;;;;;8.13;42.38;94525.69;4993824;28;20034;-87
2023/03/16 05:11:51;;;;;;;2.00;0.90;;;;;;;8.05;42.82;94520.91;4980793;28;20033;-87
2023/03/16 05:14:17;;;;;;;2.30;1.10;;;;;;;7.75;43.23;94517.78;4978884;28;20105;-87
2023/03/16 05:16:42;;;;;;;3.58;1.10;;;;;;;7.85;42.14;94519.69;4979525;28;20105;-87
2023/03/16 05:19:08;;;;;;;2.30;1.13;;;;;;;8.02;41.18;94522.19;4979672;28;20034;-87
2023/03/16 05:21:36;;;;;;;1.17;0.80;;;;;;;8.18;40.74;94512.69;4979448;28;20027;-87
2023/03/16 05:24:02;;;;;;;2.17;1.20;;;;;;;8.02;41.86;94516.97;4979967;28;20018;-88
2023/03/16 05:26:28;;;;;;;1.50;0.95;;;;;;;7.72;42.39;94515.63;4995846;28;20026;-87
2023/03/16 05:28:53;;;;;;;2.90;1.00;;;;;;;7.68;43.46;94522.38;4998572;28;20026;-88
2023/03/16 05:31:19;;;;;;;3.75;0.90;;;;;;;7.63;43.70;94517.13;5015286;28;20032;-87
2023/03/16 05:33:45;;;;;;;1.80;0.90;;;;;;;7.26;44.28;94512.50;4998778;28;20340;-87
2023/03/16 05:36:11;;;;;;;2.03;0.90;;;;;;;7.71;42.48;94527.09;4998573;28;20030;-86
2023/03/16 05:38:38;;;;;;;2.28;0.88;;;;;;;7.91;42.28;94528.34;4998706;28;20022;-87
2023/03/16 05:41:04;;;;;;;1.80;0.90;;;;;;;8.11;41.56;94529.56;4998540;28;20048;-87
2023/03/16 05:43:29;;;;;;;2.42;1.00;;;;;;;7.93;42.31;94526.28;4998486;28;20018;-87
2023/03/16 05:45:56;;;;;;;2.25;1.05;;;;;;;8.11;41.66;94529.56;5014966;28;20364;-87
2023/03/16 05:48:24;;;;;;;2.92;0.90;;;;;;;8.26;40.88;94534.16;4998130;28;20451;-87
2023/03/16 05:50:50;;;;;;;2.50;0.80;;;;;;;8.32;41.84;94541.78;4999445;28;20026;-87
2023/03/16 05:53:16;;;;;;;1.85;0.90;;;;;;;8.32;42.12;94544.41;4998227;28;20120;-87
2023/03/16 05:55:41;;;;;;;2.80;1.10;;;;;;;8.45;42.17;94545.78;4998216;28;20033;-87
2023/03/16 05:58:06;;;;;;;1.70;1.20;;;;;;;8.56;40.95;94551.91;4978670;28;20037;-87
2023/03/16 06:00:32;;;;;;;2.10;1.10;;;;;;;8.59;43.22;94553.25;4979937;28;20436;-88
2023/03/16 06:02:57;;;;;;;2.63;0.93;;;;;;;8.73;41.11;94554.41;4978326;28;20083;-87
2023/03/16 06:05:24;;;;;;;2.15;0.70;;;;;;;8.95;39.89;94553.47;4962752;28;20041;-87
2023/03/16 06:07:53;;;;;;;0.82;0.70;;;;;;;9.40;40.11;94554.00;4978502;28;20022;-87
2023/03/16 06:10:19;;;;;;;1.30;0.80;;;;;;;9.35;39.49;94569.66;4978446;28;20345;-86
2023/03/16 06:12:45;;;;;;;4.22;1.02;;;;;;;9.39;39.53;94562.09;4978222;28;20037;-87
2023/03/16 06:15:11;;;;;;;1.90;0.90;;;;;;;9.52;40.16;94563.47;4962361;28;20038;-87
2023/03/16 06:17:37;;;;;;;1.35;0.60;;;;;;;9.66;39.68;94574.22;4978328;28;20026;-87
2023/03/16 06:20:10;;;;;;;2.13;0.80;;;;;;;9.78;39.46;94569.56;4978263;28;20027;-87
2023/03/16 06:22:40;;;;;;;2.13;1.00;;;;;;;9.97;39.35;94572.50;4977792;28;20121;-87
2023/03/16 06:25:06;;;;;;;1.95;0.95;;;;;;;10.10;39.09;94581.69;4978264;28;20023;-87
2023/03/16 06:27:31;;;;;;;1.90;1.10;;;;;;;9.95;38.54;94574.59;4978684;28;20463;-87
2023/03/16 06:29:57;;;;;;;2.92;1.20;;;;;;;10.19;38.68;94580.16;4977892;28;20023;-87
2023/03/16 06:32:22;;;;;;;2.97;0.80;;;;;;;10.37;38.72;94582.56;4962052;28;20184;-87
2023/03/16 06:34:48;;;;;;;2.13;0.90;;;;;;;10.46;39.01;94583.63;4961848;28;20022;-87
2023/03/16 06:37:14;;;;;;;1.98;0.93;;;;;;;10.42;40.67;94588.63;4979016;28;20033;-87
2023/03/16 06:39:40;;;;;;;2.42;0.90;;;;;;;10.64;40.11;94584.94;4978077;28;20026;-87
2023/03/16 06:42:05;;;;;;;4.68;1.27;;;;;;;10.83;39.90;94587.03;4978057;28;20034;-87
2023/03/16 06:44:31;;;;;;;1.38;0.70;;;;;;;10.86;40.05;94594.41;4977862;28;20048;-87
2023/03/16 06:46:57;;;;;;;1.73;1.10;;;;;;;11.12;39.92;94599.63;4961957;28;20031;-87
2023/03/16 06:49:22;;;;;;;1.02;0.80;;;;;;;11.05;40.23;94604.34;4961555;28;20113;-87
2023/03/16 06:51:48;;;;;;;2.05;1.00;;;;;;;11.00;40.94;94602.50;4978844;28;20069;-87
2023/03/16 06:54:13;;;;;;;2.60;1.17;;;;;;;10.69;40.67;94605.94;4981589;28;20038;-87
2023/03/16 06:56:39;;;;;;;2.78;1.23;;;;;;;10.63;41.20;94606.97;4997012;28;20049;-88
2023/03/16 06:59:04;;;;;;;3.10;1.08;;;;;;;10.45;42.02;94608.25;4996984;28;20495;-87
2023/03/16 07:01:30;;;;;;;1.95;1.10;;;;;;;10.55;41.34;94615.34;4996986;28;20022;-88
2023/03/16 07:03:56;;;;;;;1.80;1.17;;;;;;;10.10;41.75;94620.19;4996981;28;20102;-87
2023/03/16 07:06:21;;;;;;;3.05;1.10;;;;;;;10.29;40.95;94620.50;4998172;28;20053;-87
2023/03/16 07:08:46;;;;;;;2.22;1.38;;;;;;;10.62;40.32;94620.34;4997996;28;20085;-87
2023/03/16 07:11:13;;;;;;;2.25;1.35;;;;;;;10.73;40.84;94622.69;4997410;28;20108;-88
2023/03/16 07:13:39;;;;;;;2.53;1.33;;;;;;;10.90;41.62;94626.88;4996767;28;20032;-88
2023/03/16 07:16:05;;;;;;;3.85;0.98;;;;;;;10.92;41.43;94626.63;4996617;28;20428;-88
2023/03/16 07:18:31;;;;;;;6.90;1.00;;;;;;;10.98;40.44;94626.38;4996613;28;20030;-89
2023/03/16 07:20:57;;;;;;;2.33;1.17;;;;;;;10.89;41.45;94633.94;4980349;28;20034;-88
2023/03/16 07:23:26;;;;;;;2.28;1.00;;;;;;;11.17;40.44;94644.19;4996689;28;20076;-88
2023/03/16 07:25:51;;;;;;;1.42;0.88;;;;;;;11.08;40.60;94636.06;5013195;28;20097;-88
2023/03/16 07:28:18;;;;;;;2.75;1.15;;;;;;;10.87;41.14;94635.28;4996451;28;20038;-87
2023/03/16 07:30:46;;;;;;;1.02;0.77;;;;;;;11.27;41.46;94640.75;4996475;28;20072;-87
2023/03/16 07:33:13;;;;;;;4.03;1.40;;;;;;;11.03;41.76;94649.16;4996559;28;20030;-87
2023/03/16 07:35:38;;;;;;;1.55;1.05;;;;;;;11.23;41.86;94650.22;4996396;28;20483;-87
2023/03/16 07:38:04;;;;;;;1.70;0.95;;;;;;;11.44;40.67;94658.84;4996252;28;20029;-87
2023/03/16 07:40:29;;;;;;;2.45;1.05;;;;;;;11.58;40.83;94653.81;4996351;28;20030;-87
2023/03/16 07:42:55;;;;;;;2.90;1.10;;;;;;;11.73;40.78;94655.63;4996422;28;20033;-87
2023/03/16 07:45:20;;;;;;;4.65;1.00;;;;;;;11.78;41.41;94654.84;4997501;28;20120;-88
2023/03/16 07:47:46;;;;;;;3.42;0.80;;;;;;;11.94;39.98;94656.34;4980010;28;20424;-88
2023/03/16 07:50:15;;;;;;;3.20;1.10;;;;;;;11.96;39.98;94658.69;4996279;28;20062;-88
2023/03/16 07:52:41;;;;;;;1.65;1.00;;;;;;;12.16;39.68;94668.38;4995972;28;20033;-87
2023/03/16 07:55:07;;;;;;;4.75;1.35;;;;;;;12.23;40.19;94668.88;4996272;28;20026;-88
2023/03/16 07:57:32;;;;;;;1.98;1.13;;;;;;;12.17;40.00;94677.81;4996268;28;20040;-87
2023/03/16 07:59:58;;;;;;;2.97;0.68;;;;;;;12.22;34.57;94672.56;4996118;28;20477;-87
2023/03/16 08:02:23;;;;;;;1.77;0.80;;;;;;;12.29;35.12;94673.03;4980272;28;20026;-87
2023/03/16 08:04:49;;;;;;;0.95;0.68;;;;;;;12.54;34.14;94681.06;4996228;28;20449;-88
2023/03/16 08:07:14;;;;;;;1.50;0.73;;;;;;;12.61;34.46;94686.00;4995884;28;20037;-87
2023/03/16 08:09:40;;;;;;;2.65;0.77;;;;;;;12.50;32.60;94691.34;4996075;28;20038;-87
2023/03/16 08:12:06;;;;;;;1.85;0.80;;;;;;;12.62;32.75;94684.97;4979859;28;20037;-86
2023/03/16 08:14:33;;;;;;;1.58;0.60;;;;;;;12.67;31.19;94683.09;4995672;28;20030;-88
2023/03/16 08:16:59;;;;;;;2.47;0.63;;;;;;;12.73;31.91;94689.09;4995901;28;20026;-87
2023/03/16 08:19:26;;;;;;;1.17;0.52;;;;;;;12.55;30.75;94695.78;4979437;28;20038;-87
2023/03/16 08:21:51;;;;;;;1.70;0.77;;;;;;;12.67;30.17;94692.84;4979878;28;20125;-87
2023/03/16 08:24:17;;;;;;;3.58;0.85;;;;;;;12.79;30.69;94690.66;4979990;28;20412;-87
2023/03/16 08:26:42;;;;;;;1.08;0.73;;;;;;;12.78;31.67;94694.34;4979647;28;20396;-87
2023/03/16 08:29:07;;;;;;;1.50;0.50;;;;;;;12.98;32.27;94703.94;4979951;28;20027;-87
2023/03/16 08:31:33;;;;;;;1.23;0.80;;;;;;;12.89;34.17;94699.53;4979675;28;20030;-87
2023/03/16 08:33:59;;;;;;;3.58;0.77;;;;;;;13.20;32.54;94699.28;4979940;28;20474;-87
2023/03/16 08:36:26;;;;;;;1.27;0.68;;;;;;;13.12;33.04;94709.38;4979970;28;20027;-88
2023/03/16 08:38:53;;;;;;;1.17;0.70;;;;;;;13.15;33.36;94710.66;4995827;28;20065;-87
2023/03/16 08:41:19;;;;;;;1.77;0.80;;;;;;;13.23;32.58;94709.28;4995965;28;20026;-87
2023/03/16 08:43:45;;;;;;;1.30;0.68;;;;;;;13.15;32.02;94710.66;4995974;28;20045;-89
2023/03/16 08:46:12;;;;;;;1.85;0.80;;;;;;;13.50;31.01;94714.09;4979954;28;20395;-89
2023/03/16 08:48:40;;;;;;;1.98;0.65;;;;;;;13.56;32.71;94701.66;4995743;28;20165;-89
2023/03/16 08:51:06;;;;;;;1.10;0.60;;;;;;;13.53;31.44;94713.53;4982785;28;20117;-89
2023/03/16 08:53:32;;;;;;;1.67;0.50;;;;;;;13.24;29.95;94708.22;4983243;28;20433;-89
2023/03/16 08:56:05;;;;;;;4.35;0.70;;;;;;;13.97;31.04;94719.69;4983336;28;20026;-89
2023/03/16 08:58:33;;;;;;;0.82;0.50;;;;;;;13.57;29.61;94719.03;4999350;28;20058;-89
2023/03/16 09:00:59;;;;;;;1.95;0.40;;;;;;;13.47;30.80;94714.66;4998990;28;20507;-89
2023/03/16 09:03:25;;;;;;;0.70;0.43;;;;;;;13.68;30.01;94720.50;4983165;28;20098;-88
2023/03/16 09:05:51;;;;;;;0.80;0.55;;;;;;;13.58;30.13;94720.59;4983222;28;20030;-89
2023/03/16 09:08:17;;;;;;;1.80;0.73;;;;;;;13.60;30.89;94721.09;4983097;28;20058;-89
2023/03/16 09:10:43;;;;;;;1.90;0.40;;;;;;;13.45;28.72;94729.13;4983093;28;20531;-89
2023/03/16 09:13:09;;;;;;;1.88;0.73;;;;;;;13.70;29.32;94725.47;4999035;28;20034;-89
2023/03/16 09:15:35;;;;;;;1.88;0.68;;;;;;;13.70;30.52;94725.47;4999122;28;20034;-89
2023/03/16 09:18:02;;;;;;;3.45;0.68;;;;;;;13.69;29.61;94729.97;4983000;28;20129;-89
2023/03/16 09:20:28;;;;;;;1.88;0.70;;;;;;;13.53;29.94;94726.69;4982810;28;20030;-89
2023/03/16 09:22:55;;;;;;;1.42;0.60;;;;;;;13.55;29.70;94718.53;4998865;28;20462;-89
2023/03/16 09:25:20;;;;;;;1.30;0.55;;;;;;;14.12;31.28;94725.88;4998837;28;20076;-89
2023/03/16 09:27:56;;;;;;;3.00;0.55;;;;;;;14.53;30.45;94727.22;4982727;28;20132;-89
2023/03/16 09:30:21;;;;;;;0.85;0.60;;;;;;;13.69;27.16;94723.91;4982921;28;20093;-90
2023/03/16 09:32:47;;;;;;;1.90;0.57;;;;;;;14.02;28.65;94731.25;4982364;28;20487;-89
2023/03/16 09:35:13;;;;;;;2.90;0.80;;;;;;;13.47;28.73;94722.53;4998606;28;20451;-90
2023/03/16 09:37:39;;;;;;;1.00;0.50;;;;;;;14.03;27.76;94724.91;4998330;28;20466;-90
2023/03/16 09:40:05;;;;;;;1.38;0.60;;;;;;;13.21;28.22;94730.59;4998209;28;20116;-89
2023/03/16 09:42:38;;;;;;;0.90;0.60;;;;;;;14.44;28.97;94736.84;4982525;28;20038;-90
2023/03/16 09:45:29;;;;;;;1.23;0.43;;;;;;;14.11;25.95;94742.75;4982476;28;20034;-89
2023/03/16 09:47:56;;;;;;;0.32;0.30;;;;;;;14.11;26.18;94738.25;4982327;28;20440;-90
2023/03/16 09:50:28;;;;;;;0.82;0.30;;;;;;;13.36;27.65;94732.34;4998155;28;20148;-89
2023/03/16 09:52:57;;;;;;;0.65;0.43;;;;;;;13.29;28.52;94735.28;4981810;28;20038;-89
2023/03/16 09:55:34;;;;;;;1.58;0.70;;;;;;;14.65;27.48;94734.75;5014478;28;20129;-89
2023/03/16 09:58:01;;;;;;;1.20;0.45;;;;;;;14.64;27.08;94731.31;4998225;28;20060;-89
2023/03/16 10:00:30;;;;;;;1.08;0.50;;;;;;;14.79;26.54;94733.00;4997872;28;20034;-89
2023/03/16 10:03:28;;;;;;;0.60;0.40;;;;;;;15.14;25.97;94735.44;4982101;28;20340;-89
2023/03/16 10:06:01;;;;;;;0.95;0.60;;;;;;;14.67;27.82;94738.66;4991532;28;20356;-89
2023/03/16 10:08:36;;;;;;;2.10;0.50;;;;;;;15.09;25.69;94738.91;4981742;28;20041;-89
2023/03/16 10:11:14;;;;;;;2.75;0.65;;;;;;;15.32;26.77;94741.75;4981270;28;20084;-89
2023/03/16 10:13:47;;;;;;;0.60;0.40;;;;;;;15.45;23.80;94742.88;5013908;28;20073;-90
2023/03/16 10:16:39;;;;;;;0.47;0.30;;;;;;;15.75;24.40;94737.34;4997645;28;20065;-90
2023/03/16 10:19:33;;;;;;;1.98;0.60;;;;;;;15.74;22.98;94751.66;4997006;28;20045;-90
2023/03/16 10:22:01;;;;;;;1.65;0.60;;;;;;;15.69;22.66;94744.59;4997409;28;20041;-89
2023/03/16 10:24:47;;;;;;;1.50;0.60;;;;;;;16.12;25.80;94751.53;4997725;28;20424;-89
2023/03/16 10:27:19;;;;;;;1.52;0.60;;;;;;;15.69;25.50;94741.94;4997060;28;20051;-90
2023/03/16 10:29:45;;;;;;;2.25;0.70;;;;;;;13.93;26.22;94741.59;4997608;28;20038;-88
2023/03/16 10:32:15;;;;;;;2.25;0.57;;;;;;;15.16;24.91;94749.13;4997610;28;20391;-89
2023/03/16 10:34:42;;;;;;;0.52;0.47;;;;;;;15.53;23.94;94750.13;4998588;28;20054;-88
2023/03/16 10:37:12;;;;;;;1.73;0.60;;;;;;;14.77;22.81;94737.75;4978510;28;20058;-87
2023/03/16 10:39:41;;;;;;;1.50;0.50;;;;;;;15.45;24.05;94742.88;4997234;28;20374;-86
2023/03/16 10:42:17;;;;;;;0.57;0.40;;;;;;;15.74;24.45;94746.34;4998256;28;20416;-88
2023/03/16 10:44:43;;;;;;;0.93;0.45;;;;;;;15.06;23.41;94749.25;4997618;28;20044;-88
2023/03/16 10:47:24;;;;;;;1.52;0.50;;;;;;;15.41;24.68;94747.94;4998411;28;20030;-87
2023/03/16 10:49:50;;;;;;;3.35;0.70;;;;;;;15.49;26.28;94745.69;4997108;28;20085;-86
2023/03/16 10:52:22;;;;;;;1.75;0.60;;;;;;;15.82;26.80;94753.63;4998058;28;20033;-87
2023/03/16 10:54:57;;;;;;;2.17;0.80;;;;;;;15.84;24.73;94748.84;4998015;28;20086;-87
2023/03/16 10:57:32;;;;;;;1.40;0.80;;;;;;;15.90;27.00;94744.28;4996781;28;20479;-87
2023/03/16 11:00:29;;;;;;;2.55;0.93;;;;;;;16.53;26.29;94750.75;4996927;28;20038;-87
2023/03/16 11:02:57;;;;;;;3.40;0.60;;;;;;;15.89;24.50;94745.31;4992944;28;20049;-87
2023/03/16 11:05:29;;;;;;;2.17;0.80;;;;;;;15.43;24.58;94739.75;4995640;28;20072;-87
2023/03/16 11:08:11;;;;;;;1.50;0.80;;;;;;;15.95;25.75;94742.34;4996708;28;20034;-87
2023/03/16 11:10:38;;;;;;;3.05;0.88;;;;;;;16.20;25.13;94748.19;4997043;28;20340;-86
2023/03/16 11:13:19;;;;;;;3.00;1.10;;;;;;;15.87;24.41;94748.25;4997274;28;20033;-87
2023/03/16 11:15:54;;;;;;;2.13;1.02;;;;;;;15.64;25.89;94752.59;4996763;28;20036;-87
2023/03/16 11:18:42;;;;;;;3.22;0.82;;;;;;;16.21;25.23;94756.94;4997588;28;20352;-87
2023/03/16 11:21:18;;;;;;;1.65;0.80;;;;;;;15.44;23.64;94745.78;5029456;28;20436;-87
2023/03/16 11:23:48;;;;;;;1.42;0.70;;;;;;;14.77;25.21;94744.91;4996691;28;20027;-87
2023/03/16 11:26:34;;;;;;;3.67;1.15;;;;;;;15.46;25.27;94741.00;4996457;28;20045;-87
2023/03/16 11:29:24;;;;;;;3.90;1.17;;;;;;;15.99;24.18;94755.72;4996452;28;20077;-87
2023/03/16 11:31:54;;;;;;;2.38;1.15;;;;;;;16.24;27.21;94745.75;5013296;28;20038;-87
2023/03/16 11:34:30;;;;;;;3.00;0.85;;;;;;;16.37;24.13;94746.84;4996259;28;20030;-87
2023/03/16 11:37:13;;;;;;;1.77;0.80;;;;;;;16.51;23.74;94746.84;4996722;28;20084;-87
2023/03/16 11:39:53;;;;;;;4.95;1.20;;;;;;;16.27;24.00;94737.25;5012649;28;20026;-86
2023/03/16 11:42:38;;;;;;;1.67;0.82;;;;;;;16.01;23.30;94740.38;4997392;28;20034;-87
2023/03/16 11:45:18;;;;;;;2.17;0.85;;;;;;;16.68;26.87;94738.31;5012968;28;20037;-87